Time;durP1;ratioP1;P1;durP2;ratioP2;P2;SDS_P1;SDS_P2;PMS_P1;PMS_P2;Temp;Humidity;BMP_temperature;BMP_pressure;BME280_temperature;BME280_humidity;BME280_pressure;Samples;Min_cycle;Max_cycle;Signal;HPM_P1;HPM_P2
2023/06/27 00:03:27;;;;;;;4.43;1.33;;;;;;;17.36;81.42;101023.06;8352748;28;20093;-62
2023/06/27 00:07:27;;;;;;;4.78;1.40;;;;;;;17.18;82.67;101028.72;8353589;28;20086;-62
2023/06/27 00:11:28;;;;;;;6.60;1.65;;;;;;;17.05;82.75;101022.88;8353265;28;20037;-62
2023/06/27 00:15:34;;;;;;;4.22;1.17;;;;;;;17.21;82.09;101024.78;8352272;28;20048;-62
2023/06/27 00:19:34;;;;;;;2.38;1.58;;;;;;;17.32;81.37;101021.66;8357247;28;20075;-62
2023/06/27 00:23:35;;;;;;;3.15;1.85;;;;;;;16.99;84.09;101029.00;8368946;28;20121;-62
2023/06/27 00:27:36;;;;;;;3.30;2.05;;;;;;;16.85;84.93;101021.50;8360528;28;20044;-62
2023/06/27 00:31:36;;;;;;;4.47;1.95;;;;;;;16.97;84.46;101027.47;8363446;28;20041;-62
2023/06/27 00:35:39;;;;;;;4.43;1.88;;;;;;;16.94;83.79;101027.81;8368045;28;20033;-62
2023/06/27 00:39:41;;;;;;;3.65;1.60;;;;;;;17.05;84.07;101025.59;8359779;28;20044;-62
2023/06/27 00:43:41;;;;;;;6.45;1.50;;;;;;;17.06;84.67;101023.72;8359191;28;20036;-62
2023/06/27 00:47:42;;;;;;;3.53;1.65;;;;;;;16.94;84.54;101030.56;8366693;28;20041;-63
2023/06/27 00:51:44;;;;;;;3.67;1.88;;;;;;;16.77;85.64;101023.38;8365448;28;20443;-63
2023/06/27 00:55:44;;;;;;;4.43;1.83;;;;;;;16.75;86.94;101022.69;8359337;28;20037;-62
2023/06/27 00:59:46;;;;;;;5.47;1.85;;;;;;;16.91;85.74;101028.16;8358855;28;20033;-62
2023/06/27 01:03:47;;;;;;;3.10;1.60;;;;;;;17.26;84.14;101020.50;8365109;28;20495;-62
2023/06/27 01:08:13;;;;;;;5.03;2.00;;;;;;;17.39;82.76;101023.53;8358696;28;20446;-60
2023/06/27 01:12:27;;;;;;;2.72;1.75;;;;;;;17.29;83.72;101024.75;8355299;28;20048;-60
2023/06/27 01:16:30;;;;;;;4.10;2.35;;;;;;;17.19;85.17;101029.53;8358658;28;20041;-60
2023/06/27 01:20:32;;;;;;;6.38;2.55;;;;;;;17.23;84.13;101026.28;8352414;28;20041;-60
2023/06/27 01:24:36;;;;;;;5.57;1.90;;;;;;;17.51;83.00;101035.88;8368428;28;20531;-60
2023/06/27 01:28:37;;;;;;;5.90;2.50;;;;;;;17.60;82.64;101036.75;8358202;28;20040;-60
2023/06/27 01:37:05;;;;;;;4.68;1.75;;;;;;;17.70;81.70;101040.13;8332508;27;20381;-59
2023/06/27 01:41:11;;;;;;;7.38;1.75;;;;;;;17.51;83.13;101030.41;8347930;28;20168;-60
2023/06/27 01:45:16;;;;;;;6.03;2.35;;;;;;;17.37;85.46;101016.56;8354245;28;20037;-59
2023/06/27 01:49:17;;;;;;;6.10;2.40;;;;;;;17.40;86.33;101032.63;8332745;28;20033;-59
2023/06/27 01:53:17;;;;;;;5.07;2.22;;;;;;;17.29;87.68;101024.75;8330014;28;20033;-59
2023/06/27 01:57:19;;;;;;;4.07;1.85;;;;;;;17.12;87.31;101017.59;8330406;28;20408;-59
2023/06/27 02:01:20;;;;;;;5.93;2.10;;;;;;;17.34;85.81;101016.91;8328523;28;20033;-59
2023/06/27 02:05:20;;;;;;;5.90;2.25;;;;;;;17.10;87.56;101027.81;8331114;28;20114;-59
2023/06/27 02:09:21;;;;;;;3.42;2.17;;;;;;;16.90;90.45;101035.50;8332253;28;20033;-59
2023/06/27 02:13:21;;;;;;;4.55;2.10;;;;;;;17.03;90.42;101027.66;8329881;28;20087;-59
2023/06/27 02:17:22;;;;;;;3.72;2.08;;;;;;;17.13;89.21;101025.63;8332492;28;20521;-59
2023/06/27 02:21:23;;;;;;;4.05;2.30;;;;;;;17.12;88.80;101034.84;8329065;28;20496;-59
2023/06/27 02:25:23;;;;;;;8.68;2.35;;;;;;;17.02;89.21;101022.38;8331531;28;20102;-59
2023/06/27 02:29:24;;;;;;;5.35;2.63;;;;;;;16.99;87.79;101009.06;8331464;28;20041;-59
2023/06/27 02:33:24;;;;;;;6.07;2.47;;;;;;;16.94;88.76;101016.91;8329493;28;20037;-59
2023/06/27 02:37:25;;;;;;;8.40;2.67;;;;;;;16.99;87.97;101011.78;8332169;28;20099;-62
2023/06/27 02:41:25;;;;;;;7.45;2.65;;;;;;;16.97;88.45;101024.75;8330628;28;20658;-62
2023/06/27 02:45:26;;;;;;;4.28;2.42;;;;;;;16.97;87.66;101013.81;8321793;28;20274;-60
2023/06/27 02:49:26;;;;;;;6.68;2.25;;;;;;;16.96;88.02;101012.13;8310087;28;20581;-59
2023/06/27 02:53:29;;;;;;;3.67;2.47;;;;;;;16.86;87.81;101008.69;8302438;28;20125;-60
2023/06/27 02:57:30;;;;;;;9.68;2.90;;;;;;;16.86;87.77;101016.88;8306484;28;20511;-60
2023/06/27 03:01:31;;;;;;;12.30;2.97;;;;;;;16.97;87.57;101002.91;8307410;28;20029;-59
2023/06/27 03:05:31;;;;;;;8.43;3.33;;;;;;;16.97;87.58;101006.50;8306609;28;20030;-60
2023/06/27 03:09:35;;;;;;;10.57;3.13;;;;;;;16.99;87.57;101011.78;8307945;28;20042;-60
2023/06/27 03:13:35;;;;;;;13.05;3.10;;;;;;;16.86;89.04;101012.28;8301531;28;20460;-60
2023/06/27 03:17:37;;;;;;;10.82;3.60;;;;;;;16.72;90.11;100998.44;8307706;28;20095;-59
2023/06/27 03:21:38;;;;;;;12.15;3.70;;;;;;;16.66;90.75;101004.56;8305296;28;20030;-59
2023/06/27 03:25:39;;;;;;;5.70;3.75;;;;;;;16.67;91.88;101017.19;8305816;28;20100;-59
2023/06/27 03:29:40;;;;;;;7.43;3.58;;;;;;;16.68;91.67;101016.19;8306193;28;20083;-59
2023/06/27 03:33:42;;;;;;;13.13;3.88;;;;;;;16.68;91.11;101011.56;8304617;28;20084;-60
2023/06/27 03:37:43;;;;;;;11.23;3.55;;;;;;;16.69;91.49;101020.63;8307990;28;20038;-59
2023/06/27 03:41:43;;;;;;;12.02;3.75;;;;;;;16.61;93.07;101034.22;8307099;28;20041;-59
2023/06/27 03:45:43;;;;;;;7.85;3.65;;;;;;;16.44;93.60;101021.56;8306230;28;20034;-59
2023/06/27 03:49:44;;;;;;;9.35;2.85;;;;;;;16.41;93.77;101027.34;8308193;28;20033;-60
2023/06/27 03:53:44;;;;;;;10.27;3.65;;;;;;;16.40;96.70;101020.16;8302940;28;20034;-59
2023/06/27 03:57:45;;;;;;;9.50;3.10;;;;;;;16.32;95.32;101022.88;8305241;28;20037;-59
2023/06/27 04:01:46;;;;;;;9.82;3.90;;;;;;;16.44;96.74;101027.03;8303939;28;20392;-59
2023/06/27 04:05:47;;;;;;;8.65;3.42;;;;;;;16.52;95.70;101019.72;8307379;28;20064;-60
2023/06/27 04:09:47;;;;;;;7.43;3.15;;;;;;;16.72;94.91;101028.47;8304828;28;20095;-59
2023/06/27 04:13:48;;;;;;;10.82;3.55;;;;;;;16.76;92.83;101032.56;8305810;28;20587;-59
2023/06/27 04:17:48;;;;;;;8.60;3.55;;;;;;;16.99;91.39;101018.09;8305906;28;20152;-59
2023/06/27 04:21:49;;;;;;;6.68;3.15;;;;;;;17.01;88.85;101021.50;8303117;28;20037;-60
2023/06/27 04:26:07;;;;;;;8.13;3.42;;;;;;;17.02;91.48;101022.38;8302305;28;20330;-59
2023/06/27 04:30:09;;;;;;;13.43;3.60;;;;;;;16.71;92.07;101024.03;8302769;28;20037;-59
2023/06/27 04:34:10;;;;;;;9.15;3.40;;;;;;;16.53;94.13;101015.13;8304320;28;20536;-60
2023/06/27 04:38:14;;;;;;;7.75;3.08;;;;;;;16.68;92.51;101021.66;8305850;28;20529;-59
2023/06/27 04:42:14;;;;;;;5.13;3.15;;;;;;;16.74;92.18;101018.25;8300603;28;20042;-59
2023/06/27 04:46:15;;;;;;;8.25;3.53;;;;;;;16.65;91.70;101013.78;8306467;28;20614;-60
2023/06/27 04:50:19;;;;;;;10.80;3.55;;;;;;;16.72;91.59;101023.00;8304891;28;20051;-59
2023/06/27 04:54:20;;;;;;;7.93;3.45;;;;;;;16.91;90.84;101019.97;8301517;28;20045;-59
2023/06/27 04:58:20;;;;;;;10.57;3.35;;;;;;;17.06;89.30;101029.19;8302860;28;20037;-59
2023/06/27 05:02:21;;;;;;;8.20;3.13;;;;;;;17.10;89.49;101022.34;8305528;28;20530;-59
2023/06/27 05:06:21;;;;;;;9.45;3.05;;;;;;;17.35;87.11;101027.66;8303714;28;20091;-59
2023/06/27 05:10:22;;;;;;;11.13;3.72;;;;;;;17.60;88.08;101036.75;8303374;28;20040;-59
2023/06/27 05:14:23;;;;;;;8.38;2.80;;;;;;;18.03;86.19;101028.09;8304171;28;20062;-59
2023/06/27 05:18:25;;;;;;;8.68;2.95;;;;;;;18.11;84.73;101027.22;8305792;28;20400;-59
2023/06/27 05:22:25;;;;;;;13.13;3.20;;;;;;;18.31;84.81;101023.88;8301949;28;20132;-59
2023/06/27 05:26:26;;;;;;;15.40;3.13;;;;;;;18.62;83.36;101030.25;8302910;28;20091;-60
2023/06/27 05:30:27;;;;;;;6.05;2.80;;;;;;;18.82;85.40;101028.72;8304486;28;20034;-59
2023/06/27 05:34:28;;;;;;;7.55;2.70;;;;;;;19.27;84.47;101034.25;8301336;28;20045;-59
2023/06/27 05:38:28;;;;;;;7.95;3.20;;;;;;;19.51;81.84;101037.84;8302394;28;20103;-60
2023/06/27 05:42:29;;;;;;;3.90;2.20;;;;;;;19.72;79.87;101026.97;8305100;28;20352;-59
2023/06/27 05:46:34;;;;;;;10.73;3.03;;;;;;;19.86;79.24;101023.41;8303401;28;20399;-60
2023/06/27 05:50:35;;;;;;;7.95;2.60;;;;;;;20.06;79.07;101025.41;8302819;28;20041;-59
2023/06/27 05:54:35;;;;;;;8.43;2.40;;;;;;;20.80;77.88;101016.06;8302817;28;20041;-60
2023/06/27 05:58:36;;;;;;;8.52;2.33;;;;;;;21.19;75.67;101013.72;8298845;28;20571;-59
2023/06/27 06:02:37;;;;;;;9.40;2.20;;;;;;;21.43;74.28;101013.31;8304587;28;20033;-59
2023/06/27 06:06:38;;;;;;;8.20;2.10;;;;;;;21.66;72.83;101008.44;8302048;28;20044;-59
2023/06/27 06:10:39;;;;;;;11.48;3.08;;;;;;;21.53;71.21;101013.81;8302092;28;20065;-63
2023/06/27 06:14:39;;;;;;;9.38;2.20;;;;;;;21.81;70.90;101013.88;8303266;28;20045;-63
2023/06/27 06:18:39;;;;;;;7.28;2.03;;;;;;;21.98;70.92;101018.84;8302718;28;20408;-62
2023/06/27 06:22:40;;;;;;;10.98;2.42;;;;;;;22.14;69.12;101018.50;8283634;28;20405;-63
2023/06/27 06:26:40;;;;;;;12.45;2.13;;;;;;;22.12;69.45;101017.88;8289779;28;20033;-63
2023/06/27 06:30:41;;;;;;;7.95;2.33;;;;;;;22.19;68.91;101018.75;8306200;28;20038;-62
2023/06/27 06:34:41;;;;;;;9.30;2.53;;;;;;;22.26;69.31;101014.13;8307218;28;20058;-63
2023/06/27 06:38:42;;;;;;;8.82;2.17;;;;;;;22.39;69.06;101007.84;8309864;28;20407;-63
2023/06/27 06:42:42;;;;;;;9.05;2.10;;;;;;;22.53;69.02;101010.47;8306611;28;20467;-63
2023/06/27 06:46:43;;;;;;;14.57;2.70;;;;;;;22.75;66.35;101014.78;8307300;28;20033;-63
2023/06/27 06:50:44;;;;;;;14.25;2.42;;;;;;;23.05;66.64;101016.16;8305035;28;20040;-63
2023/06/27 06:54:44;;;;;;;9.38;2.28;;;;;;;23.28;67.59;101009.41;8303128;28;20034;-63
2023/06/27 06:58:45;;;;;;;13.20;2.45;;;;;;;23.67;66.57;101017.72;8307428;28;20091;-63
2023/06/27 07:02:45;;;;;;;13.73;2.42;;;;;;;23.96;65.18;101012.63;8306736;28;20033;-63
2023/06/27 07:06:48;;;;;;;13.65;2.28;;;;;;;23.70;63.33;101014.53;8306709;28;20056;-63
2023/06/27 07:10:48;;;;;;;12.30;2.30;;;;;;;24.07;64.40;101013.88;8305542;28;20084;-63
2023/06/27 07:14:49;;;;;;;12.23;2.03;;;;;;;24.28;64.08;101014.44;8308210;28;20037;-63
2023/06/27 07:18:50;;;;;;;9.73;2.50;;;;;;;24.14;64.96;101017.44;8305597;28;20124;-63
2023/06/27 07:22:51;;;;;;;11.25;2.30;;;;;;;24.37;63.55;101013.13;8304736;28;20121;-63
2023/06/27 07:26:51;;;;;;;7.55;2.40;;;;;;;24.28;64.47;101013.59;8305381;28;20038;-63
2023/06/27 07:30:52;;;;;;;8.15;2.25;;;;;;;24.10;64.37;101010.66;8305181;28;20042;-63
2023/06/27 07:34:52;;;;;;;13.10;2.57;;;;;;;24.44;64.46;101013.13;8307825;28;20407;-63
2023/06/27 07:38:53;;;;;;;12.70;2.08;;;;;;;24.35;62.95;101015.28;8304306;28;20276;-63
2023/06/27 07:42:53;;;;;;;14.23;2.22;;;;;;;24.44;62.43;101013.13;8306344;28;20068;-63
2023/06/27 07:46:53;;;;;;;8.02;2.20;;;;;;;24.50;63.21;101006.72;8307288;28;20057;-63
2023/06/27 07:50:54;;;;;;;11.35;2.17;;;;;;;24.47;62.12;100998.84;8302838;28;20200;-63
2023/06/27 07:54:54;;;;;;;8.27;1.73;;;;;;;24.65;61.29;101004.56;8305395;28;20471;-63
2023/06/27 07:58:55;;;;;;;14.80;2.42;;;;;;;24.58;61.36;101003.72;8304351;28;20347;-63
2023/06/27 08:02:55;;;;;;;11.98;1.80;;;;;;;25.08;63.07;100997.28;8305918;28;20041;-63
2023/06/27 08:06:56;;;;;;;7.72;2.03;;;;;;;25.00;62.77;101005.81;8305168;28;20496;-62
2023/06/27 08:10:57;;;;;;;9.95;2.03;;;;;;;25.09;62.66;100998.97;8306886;28;20041;-63
2023/06/27 08:14:57;;;;;;;7.97;1.63;;;;;;;25.20;60.75;101003.78;8304445;28;20425;-63
2023/06/27 08:18:58;;;;;;;13.67;2.47;;;;;;;24.63;60.14;100996.44;8304762;28;20045;-63
2023/06/27 08:22:58;;;;;;;9.80;1.50;;;;;;;25.16;60.10;100997.03;8306297;28;20690;-63
2023/06/27 08:26:59;;;;;;;8.87;1.60;;;;;;;25.98;58.69;100997.59;8306386;28;20069;-63
2023/06/27 08:30:59;;;;;;;5.70;1.50;;;;;;;26.38;57.99;100996.09;8304244;28;20280;-62
2023/06/27 08:35:01;;;;;;;13.75;1.58;;;;;;;26.23;57.88;100990.06;8304656;28;20112;-62
2023/06/27 08:39:01;;;;;;;15.32;2.38;;;;;;;26.51;56.79;100984.84;8303136;28;20046;-62
2023/06/27 08:43:04;;;;;;;14.85;1.77;;;;;;;26.65;56.67;100989.16;8306294;28;20045;-62
2023/06/27 08:47:07;;;;;;;7.72;1.88;;;;;;;26.32;56.37;100988.69;8315371;28;20049;-62
2023/06/27 08:51:11;;;;;;;8.67;1.97;;;;;;;26.18;58.37;100981.63;8301748;28;20095;-64
2023/06/27 08:55:35;;;;;;;4.68;1.42;;;;;;;26.03;54.24;100983.91;8303887;28;20088;-63
2023/06/27 08:59:36;;;;;;;4.00;0.95;;;;;;;25.95;54.18;100975.88;8300534;28;20038;-62
2023/06/27 09:03:37;;;;;;;16.20;1.65;;;;;;;25.63;55.24;100971.50;8303573;28;20053;-63
2023/06/27 09:07:38;;;;;;;6.50;1.67;;;;;;;25.72;55.83;100981.22;8304937;28;20088;-63
2023/06/27 09:11:38;;;;;;;3.83;1.20;;;;;;;25.90;53.66;100986.81;8304648;28;20775;-63
2023/06/27 09:15:38;;;;;;;3.17;1.45;;;;;;;26.24;54.13;100975.16;8302868;28;20156;-59
2023/06/27 09:19:39;;;;;;;7.05;1.25;;;;;;;26.65;53.87;100982.75;8302503;28;20092;-60
2023/06/27 09:23:40;;;;;;;8.65;1.33;;;;;;;26.40;54.84;100971.75;8301951;28;20315;-60
2023/06/27 09:27:41;;;;;;;3.10;1.00;;;;;;;26.34;52.42;100986.53;8303155;28;20125;-59
2023/06/27 09:31:43;;;;;;;3.50;1.38;;;;;;;27.01;52.82;100984.63;8300849;28;20037;-60
2023/06/27 09:35:44;;;;;;;5.00;1.48;;;;;;;27.09;52.72;100978.72;8302973;28;20045;-59
2023/06/27 09:39:45;;;;;;;3.47;1.10;;;;;;;26.70;53.94;100969.88;8304100;28;20047;-60
2023/06/27 09:43:51;;;;;;;5.20;1.33;;;;;;;27.25;52.71;100972.50;8302008;28;20504;-59
2023/06/27 09:47:51;;;;;;;10.00;1.50;;;;;;;27.32;50.88;100978.81;8297997;28;20061;-59
2023/06/27 09:51:53;;;;;;;13.15;2.13;;;;;;;27.08;52.96;100977.03;8300704;28;20056;-60
2023/06/27 09:55:56;;;;;;;7.28;1.33;;;;;;;26.46;53.55;100984.69;8305692;28;20034;-59
2023/06/27 09:59:57;;;;;;;8.30;2.03;;;;;;;27.13;52.74;100985.47;8308186;28;20120;-59
2023/06/27 10:03:58;;;;;;;8.60;1.48;;;;;;;26.66;53.32;100985.28;8305542;28;20129;-59
2023/06/27 10:07:58;;;;;;;8.07;1.77;;;;;;;26.08;52.99;100992.41;8307376;28;20378;-59
2023/06/27 10:11:59;;;;;;;5.00;1.48;;;;;;;25.94;52.70;100993.56;8310284;28;20293;-62
2023/06/27 10:16:00;;;;;;;6.10;1.30;;;;;;;25.73;53.58;100982.91;8297567;28;20045;-61
2023/06/27 10:20:03;;;;;;;9.02;1.50;;;;;;;25.46;55.81;100987.00;8308715;28;20042;-62
2023/06/27 10:24:04;;;;;;;5.28;1.45;;;;;;;25.06;54.72;100977.25;8306818;28;20052;-62
2023/06/27 10:28:07;;;;;;;5.38;1.25;;;;;;;25.25;54.74;100976.25;8307204;28;20076;-62
2023/06/27 10:32:08;;;;;;;6.35;1.30;;;;;;;25.40;53.51;100985.13;8303396;28;20514;-62
2023/06/27 10:36:10;;;;;;;3.78;1.35;;;;;;;25.80;51.90;100989.22;8309984;28;20415;-62
2023/06/27 10:40:10;;;;;;;11.48;1.73;;;;;;;26.08;52.80;100997.94;8307684;28;20144;-62
2023/06/27 10:44:17;;;;;;;4.57;1.27;;;;;;;27.07;50.29;100987.28;8307659;28;20128;-62
2023/06/27 10:48:34;;;;;;;6.38;1.48;;;;;;;27.58;48.23;100986.69;8309629;28;20045;-62
2023/06/27 10:52:35;;;;;;;9.95;1.20;;;;;;;28.27;46.44;100984.75;8306019;28;20060;-62
2023/06/27 11:00:51;;;;;;;5.82;1.30;;;;;;;31.92;44.09;100985.00;8384409;27;20379;-63
2023/06/27 11:04:52;;;;;;;4.15;0.95;;;;;;;29.38;45.34;100989.81;8395358;27;20040;-62
2023/06/27 11:08:55;;;;;;;5.63;1.40;;;;;;;28.18;46.85;100985.41;8395638;27;20036;-62
2023/06/27 11:13:21;;;;;;;7.20;1.20;;;;;;;29.64;45.51;100981.66;8397055;27;20041;-62
2023/06/27 11:17:23;;;;;;;5.15;0.98;;;;;;;29.48;43.09;100965.75;8396197;27;20443;-62
2023/06/27 11:21:24;;;;;;;3.22;1.10;;;;;;;28.03;47.26;100969.19;8398066;27;20044;-60
2023/06/27 11:25:25;;;;;;;5.45;1.30;;;;;;;27.65;48.04;100973.50;8400243;27;20036;-59
2023/06/27 11:29:27;;;;;;;4.90;1.45;;;;;;;28.80;45.46;100962.25;8398069;27;20044;-60
2023/06/27 11:33:28;;;;;;;6.97;1.27;;;;;;;30.67;43.95;100972.56;8396688;27;20745;-59
2023/06/27 11:37:28;;;;;;;3.10;0.90;;;;;;;30.64;43.57;100959.13;8398313;27;20572;-60
2023/06/27 11:41:29;;;;;;;5.95;0.98;;;;;;;30.69;42.79;100968.41;8394509;27;20048;-59
2023/06/27 11:45:31;;;;;;;4.97;1.02;;;;;;;31.86;42.43;100963.69;8378721;27;20091;-60
2023/06/27 11:49:31;;;;;;;3.85;1.23;;;;;;;30.28;41.88;100967.03;8396951;27;20044;-63
2023/06/27 11:53:33;;;;;;;5.75;1.35;;;;;;;28.76;44.77;100955.50;8394920;27;20547;-63
2023/06/27 11:57:52;;;;;;;8.93;1.13;;;;;;;29.73;45.89;100952.25;8399370;27;20513;-63
2023/06/27 12:01:53;;;;;;;3.72;1.00;;;;;;;29.61;45.31;100959.81;8393480;27;20060;-63
2023/06/27 12:05:56;;;;;;;4.07;1.00;;;;;;;31.12;42.87;100954.38;8397328;27;20070;-63
2023/06/27 12:10:05;;;;;;;5.70;1.20;;;;;;;31.65;41.71;100950.69;8384116;27;20096;-63
2023/06/27 12:14:06;;;;;;;4.53;1.40;;;;;;;31.66;42.25;100946.75;8373421;28;20061;-62
2023/06/27 12:18:08;;;;;;;4.30;1.13;;;;;;;29.56;45.77;100945.81;8373786;28;20051;-63
2023/06/27 12:22:08;;;;;;;6.13;1.20;;;;;;;28.34;48.28;100951.25;8370011;28;20126;-62
2023/06/27 12:26:09;;;;;;;4.90;1.70;;;;;;;27.75;48.96;100951.56;8376358;28;20033;-62
2023/06/27 12:30:11;;;;;;;7.13;1.50;;;;;;;27.45;46.88;100939.69;8371300;28;20041;-62
2023/06/27 12:34:12;;;;;;;6.85;1.20;;;;;;;27.24;50.65;100926.34;8403995;28;20159;-62
2023/06/27 12:38:12;;;;;;;9.10;1.27;;;;;;;27.66;49.37;100931.59;8373115;28;20040;-60
2023/06/27 12:42:13;;;;;;;5.32;1.20;;;;;;;27.18;49.23;100925.38;8371775;28;20689;-60
2023/06/27 12:46:14;;;;;;;7.97;1.55;;;;;;;26.80;50.42;100931.31;8373412;28;20041;-60
2023/06/27 12:50:17;;;;;;;4.75;1.23;;;;;;;26.57;49.76;100922.88;8373422;28;20036;-64
2023/06/27 12:54:17;;;;;;;7.77;1.60;;;;;;;26.52;50.28;100922.72;8372704;28;20047;-64
2023/06/27 12:58:18;;;;;;;7.97;1.80;;;;;;;26.61;50.97;100915.78;8372154;28;20044;-64
2023/06/27 13:02:18;;;;;;;5.13;1.13;;;;;;;26.13;52.54;100923.25;8371883;28;20299;-64
2023/06/27 13:06:19;;;;;;;6.15;1.40;;;;;;;25.98;53.20;100931.09;8373431;28;20119;-63
2023/06/27 13:10:19;;;;;;;8.40;1.63;;;;;;;26.15;51.04;100926.63;8375975;28;20353;-64
2023/06/27 13:14:22;;;;;;;6.22;1.13;;;;;;;26.37;50.95;100916.75;8374483;28;20509;-64
2023/06/27 13:18:22;;;;;;;2.60;1.35;;;;;;;26.88;48.61;100915.41;8370319;28;20434;-64
2023/06/27 13:22:23;;;;;;;7.53;1.30;;;;;;;26.60;47.17;100914.06;8369079;28;20127;-64
2023/06/27 13:26:24;;;;;;;3.85;1.20;;;;;;;26.99;49.99;100906.28;8373194;28;20106;-64
2023/06/27 13:30:25;;;;;;;7.97;1.27;;;;;;;26.44;51.64;100903.63;8371443;28;20041;-64
2023/06/27 13:34:26;;;;;;;6.55;1.70;;;;;;;26.59;51.63;100909.59;8368603;28;20045;-64
2023/06/27 13:38:26;;;;;;;4.45;1.50;;;;;;;26.67;50.77;100902.91;8371818;28;20120;-64
2023/06/27 13:42:27;;;;;;;4.55;1.38;;;;;;;27.02;52.37;100900.25;8371333;28;20046;-64
2023/06/27 13:46:28;;;;;;;3.85;1.35;;;;;;;27.42;48.41;100896.59;8370626;28;20041;-64
2023/06/27 13:50:28;;;;;;;5.07;1.05;;;;;;;27.36;48.82;100907.81;8372427;28;20040;-64
2023/06/27 13:54:30;;;;;;;3.40;1.10;;;;;;;26.78;50.37;100891.00;8371643;28;20040;-64
2023/06/27 13:58:31;;;;;;;4.80;1.08;;;;;;;26.94;50.29;100887.56;8359567;28;20482;-64
2023/06/27 14:02:33;;;;;;;3.08;1.08;;;;;;;27.03;49.39;100890.81;8370410;28;20147;-64
2023/06/27 14:06:53;;;;;;;3.55;1.35;;;;;;;26.88;48.41;100884.88;8369512;28;20032;-64
2023/06/27 14:10:54;;;;;;;4.18;1.10;;;;;;;27.21;51.59;100887.94;8369164;28;20041;-64
2023/06/27 14:14:54;;;;;;;4.53;1.30;;;;;;;27.19;50.31;100890.09;8371153;28;20036;-64
2023/06/27 14:18:55;;;;;;;6.15;1.33;;;;;;;27.08;49.64;100888.19;8369599;28;20118;-64
2023/06/27 14:22:58;;;;;;;2.97;1.10;;;;;;;26.98;46.38;100874.06;8369116;28;20406;-64
2023/06/27 14:26:59;;;;;;;5.13;1.30;;;;;;;26.90;47.84;100857.72;8372807;28;20121;-64
2023/06/27 14:31:00;;;;;;;5.80;1.08;;;;;;;26.72;49.45;100865.03;8368860;28;20068;-62
2023/06/27 14:35:01;;;;;;;7.15;1.40;;;;;;;27.07;48.76;100864.28;8369115;28;20047;-63
2023/06/27 14:39:02;;;;;;;3.25;1.15;;;;;;;27.18;46.66;100860.66;8369137;28;20115;-64
2023/06/27 14:43:03;;;;;;;5.75;1.50;;;;;;;27.09;49.59;100867.66;8371295;28;20122;-64
2023/06/27 14:47:04;;;;;;;3.15;1.15;;;;;;;27.02;49.58;100858.59;8368819;28;20037;-64
2023/06/27 14:51:04;;;;;;;8.27;1.52;;;;;;;26.97;50.29;100864.00;8370815;28;20040;-64
2023/06/27 14:55:05;;;;;;;5.88;1.17;;;;;;;26.63;49.60;100863.69;8370044;28;20466;-64
2023/06/27 14:59:06;;;;;;;5.13;1.50;;;;;;;26.39;49.31;100866.59;8368034;28;20408;-64
2023/06/27 15:03:06;;;;;;;6.35;1.23;;;;;;;26.42;50.93;100861.44;8371134;28;20044;-64
2023/06/27 15:07:06;;;;;;;3.43;1.00;;;;;;;26.60;52.68;100855.81;8368393;28;20052;-64
2023/06/27 15:11:07;;;;;;;5.47;1.40;;;;;;;26.84;50.06;100849.25;8369809;28;20284;-64
2023/06/27 15:15:08;;;;;;;3.45;1.15;;;;;;;26.86;49.24;100842.66;8368593;28;20035;-63
2023/06/27 15:19:09;;;;;;;7.05;1.35;;;;;;;26.53;50.79;100845.91;8364346;28;20071;-62
2023/06/27 15:23:09;;;;;;;4.25;1.05;;;;;;;26.60;51.03;100836.38;8367703;28;20041;-63
2023/06/27 15:27:10;;;;;;;9.70;2.05;;;;;;;26.61;50.57;100826.13;8372373;28;20037;-63
2023/06/27 15:31:13;;;;;;;2.75;1.13;;;;;;;26.70;49.43;100824.75;8364458;28;20114;-63
2023/06/27 15:35:13;;;;;;;6.07;0.95;;;;;;;26.68;49.55;100819.44;8367817;28;20041;-63
2023/06/27 15:39:14;;;;;;;3.85;1.33;;;;;;;26.78;49.86;100819.69;8370064;28;20041;-63
2023/06/27 15:43:14;;;;;;;4.40;1.10;;;;;;;26.92;49.98;100816.72;8367210;28;20534;-63
2023/06/27 15:47:15;;;;;;;5.03;1.40;;;;;;;26.99;48.78;100817.44;8375411;28;20454;-63
2023/06/27 15:51:15;;;;;;;4.45;1.38;;;;;;;26.58;48.13;100804.41;8372104;28;20291;-63
2023/06/27 15:55:16;;;;;;;5.00;0.98;;;;;;;26.23;48.34;100800.72;8377401;28;20048;-63
2023/06/27 15:59:16;;;;;;;4.88;1.20;;;;;;;25.97;49.94;100818.50;8374286;28;20411;-63
2023/06/27 16:03:17;;;;;;;3.53;1.10;;;;;;;26.25;49.63;100806.84;8374084;28;20052;-63
2023/06/27 16:07:18;;;;;;;7.68;1.40;;;;;;;26.42;50.23;100800.41;8375905;28;20739;-63
2023/06/27 16:11:19;;;;;;;8.00;1.10;;;;;;;26.58;49.84;100796.09;8373987;28;20041;-63
2023/06/27 16:15:19;;;;;;;3.50;0.95;;;;;;;26.47;49.10;100799.72;8376101;28;20047;-63
2023/06/27 16:19:20;;;;;;;3.28;1.02;;;;;;;26.39;49.56;100800.88;8372220;28;20036;-63
2023/06/27 16:23:20;;;;;;;2.78;1.40;;;;;;;26.38;50.50;100787.25;8372654;28;20048;-63
2023/06/27 16:27:21;;;;;;;4.03;0.93;;;;;;;26.28;51.52;100796.13;8377653;28;20519;-63
2023/06/27 16:31:21;;;;;;;5.78;1.15;;;;;;;26.10;50.85;100787.88;8372995;28;20047;-63
2023/06/27 16:35:21;;;;;;;4.95;1.20;;;;;;;26.03;49.45;100786.28;8372103;28;20044;-63
2023/06/27 16:39:22;;;;;;;6.18;1.30;;;;;;;26.02;51.16;100791.00;8373586;28;20036;-63
2023/06/27 16:43:23;;;;;;;4.90;1.30;;;;;;;25.94;51.54;100780.19;8372831;28;20400;-63
2023/06/27 16:47:24;;;;;;;5.25;1.30;;;;;;;25.91;51.36;100786.19;8372855;28;20033;-63
2023/06/27 16:51:24;;;;;;;3.63;1.05;;;;;;;25.98;52.06;100780.59;8370396;28;20033;-63
2023/06/27 16:55:25;;;;;;;6.00;1.30;;;;;;;25.85;52.09;100787.13;8376365;28;20044;-63
2023/06/27 16:59:25;;;;;;;4.05;1.02;;;;;;;25.61;52.38;100784.47;8367373;28;20619;-63
2023/06/27 17:03:26;;;;;;;7.38;1.30;;;;;;;25.49;52.61;100784.38;8372753;28;20138;-63
2023/06/27 17:07:26;;;;;;;4.07;1.30;;;;;;;25.45;52.78;100783.16;8368422;28;20354;-63
2023/06/27 17:11:27;;;;;;;7.60;2.15;;;;;;;25.42;54.43;100791.94;8373590;28;20047;-63
2023/06/27 17:15:27;;;;;;;6.80;1.40;;;;;;;25.32;52.80;100788.84;8371630;28;20047;-63
2023/06/27 17:19:28;;;;;;;4.53;1.05;;;;;;;25.19;53.95;100786.19;8372156;28;20032;-63
2023/06/27 17:23:29;;;;;;;5.55;1.40;;;;;;;25.14;53.05;100790.72;8369573;28;20170;-63
2023/06/27 17:27:29;;;;;;;7.55;1.48;;;;;;;25.02;53.59;100794.25;8371936;28;20116;-63
2023/06/27 17:31:30;;;;;;;4.68;1.48;;;;;;;24.89;53.27;100804.59;8372415;28;20507;-63
2023/06/27 17:35:32;;;;;;;5.72;1.58;;;;;;;24.77;55.16;100809.16;8372149;28;20591;-63
2023/06/27 17:39:32;;;;;;;4.50;1.40;;;;;;;24.74;54.97;100821.50;8370703;28;20040;-62
2023/06/27 17:43:33;;;;;;;5.50;1.38;;;;;;;24.75;55.49;100819.59;8370247;28;20072;-63
2023/06/27 17:47:33;;;;;;;6.53;1.42;;;;;;;24.64;54.44;100809.25;8371413;28;20170;-63
2023/06/27 17:51:33;;;;;;;5.43;1.33;;;;;;;24.66;54.76;100801.59;8369053;28;20040;-63
2023/06/27 17:55:34;;;;;;;5.32;1.42;;;;;;;24.48;57.42;100793.19;8373074;28;20279;-63
2023/06/27 17:59:34;;;;;;;9.82;1.70;;;;;;;24.55;55.20;100808.66;8370151;28;20127;-63
2023/06/27 18:03:35;;;;;;;5.82;1.65;;;;;;;24.55;56.17;100816.13;8372746;28;20537;-63
2023/06/27 18:07:36;;;;;;;4.32;1.75;;;;;;;24.35;56.38;100807.09;8365528;28;20399;-63
2023/06/27 18:11:36;;;;;;;6.47;1.42;;;;;;;24.46;55.84;100811.94;8370736;28;20412;-63
2023/06/27 18:15:37;;;;;;;5.25;1.40;;;;;;;24.37;55.96;100813.25;8369900;28;20040;-63
2023/06/27 18:19:38;;;;;;;9.48;2.40;;;;;;;24.22;55.00;100812.72;8368263;28;20045;-63
2023/06/27 18:23:38;;;;;;;7.00;1.50;;;;;;;24.13;55.05;100800.22;8366692;28;20036;-63
2023/06/27 18:27:39;;;;;;;5.53;1.42;;;;;;;24.08;56.00;100797.28;8371717;28;20091;-63
2023/06/27 18:31:40;;;;;;;8.48;1.33;;;;;;;24.03;56.23;100810.91;8366632;28;20033;-63
2023/06/27 18:35:40;;;;;;;6.63;1.55;;;;;;;24.04;56.04;100816.22;8369716;28;20044;-63
2023/06/27 18:39:41;;;;;;;9.45;1.70;;;;;;;23.94;55.76;100817.72;8367851;28;20388;-63
2023/06/27 18:43:41;;;;;;;9.55;1.98;;;;;;;23.81;55.74;100817.78;8365729;28;20033;-63
2023/06/27 18:47:42;;;;;;;9.85;1.70;;;;;;;23.71;56.05;100823.78;8370371;28;20037;-63
2023/06/27 18:51:42;;;;;;;6.93;1.40;;;;;;;23.54;57.58;100827.25;8367688;28;20037;-63